sensor_id;sensor_type;location;lat;lon;timestamp;temperature;humidity
23495;DHT22;26107;50.832;2.950;2022-12-07T00:07:32;6.00;99.90
23495;DHT22;26107;50.832;2.950;2022-12-07T00:22:33;5.80;99.90
23495;DHT22;26107;50.832;2.950;2022-12-07T00:37:33;5.80;99.90
23495;DHT22;26107;50.832;2.950;2022-12-07T00:52:34;6.00;99.90
23495;DHT22;26107;50.832;2.950;2022-12-07T01:07:37;6.30;99.90
23495;DHT22;26107;50.832;2.950;2022-12-07T01:22:39;6.10;99.90
23495;DHT22;26107;50.832;2.950;2022-12-07T01:37:39;6.10;99.90
23495;DHT22;26107;50.832;2.950;2022-12-07T01:52:42;5.80;99.90
23495;DHT22;26107;50.832;2.950;2022-12-07T02:07:47;6.10;99.90
23495;DHT22;26107;50.832;2.950;2022-12-07T02:23:07;6.10;99.90
23495;DHT22;26107;50.832;2.950;2022-12-07T02:53:40;6.40;99.90
23495;DHT22;26107;50.832;2.950;2022-12-07T03:09:13;6.00;99.90
23495;DHT22;26107;50.832;2.950;2022-12-07T03:24:24;6.20;99.90
23495;DHT22;26107;50.832;2.950;2022-12-07T03:39:28;5.80;99.90
23495;DHT22;26107;50.832;2.950;2022-12-07T04:09:43;5.90;99.90
23495;DHT22;26107;50.832;2.950;2022-12-07T04:24:44;5.70;99.90
23495;DHT22;26107;50.832;2.950;2022-12-07T04:39:44;6.10;99.90
23495;DHT22;26107;50.832;2.950;2022-12-07T04:54:45;6.20;99.90
23495;DHT22;26107;50.832;2.950;2022-12-07T05:09:46;6.40;99.90
23495;DHT22;26107;50.832;2.950;2022-12-07T05:24:46;6.50;99.90
23495;DHT22;26107;50.832;2.950;2022-12-07T05:39:47;6.60;99.90
23495;DHT22;26107;50.832;2.950;2022-12-07T05:54:47;6.10;99.90
23495;DHT22;26107;50.832;2.950;2022-12-07T06:09:48;6.10;99.90
23495;DHT22;26107;50.832;2.950;2022-12-07T06:24:49;6.30;99.90
23495;DHT22;26107;50.832;2.950;2022-12-07T06:39:49;6.30;99.90
23495;DHT22;26107;50.832;2.950;2022-12-07T06:54:50;6.30;99.90
23495;DHT22;26107;50.832;2.950;2022-12-07T07:09:51;6.30;99.90
23495;DHT22;26107;50.832;2.950;2022-12-07T07:24:51;6.60;99.90
23495;DHT22;26107;50.832;2.950;2022-12-07T07:39:52;6.60;99.90
23495;DHT22;26107;50.832;2.950;2022-12-07T07:54:53;6.00;99.90
23495;DHT22;26107;50.832;2.950;2022-12-07T08:09:54;5.70;99.90
23495;DHT22;26107;50.832;2.950;2022-12-07T08:24:55;6.00;99.90
23495;DHT22;26107;50.832;2.950;2022-12-07T08:39:55;6.00;99.90
23495;DHT22;26107;50.832;2.950;2022-12-07T08:54:56;6.10;99.90
23495;DHT22;26107;50.832;2.950;2022-12-07T09:09:59;6.50;99.90
23495;DHT22;26107;50.832;2.950;2022-12-07T09:25:00;6.60;99.90
23495;DHT22;26107;50.832;2.950;2022-12-07T09:40:02;6.70;99.90
23495;DHT22;26107;50.832;2.950;2022-12-07T09:55:03;6.70;99.90
23495;DHT22;26107;50.832;2.950;2022-12-07T10:25:44;7.30;99.90
23495;DHT22;26107;50.832;2.950;2022-12-07T10:40:45;7.20;99.90
23495;DHT22;26107;50.832;2.950;2022-12-07T10:56:32;6.50;99.90
23495;DHT22;26107;50.832;2.950;2022-12-07T11:11:41;6.80;99.90
23495;DHT22;26107;50.832;2.950;2022-12-07T11:42:42;7.40;99.90
23495;DHT22;26107;50.832;2.950;2022-12-07T11:57:45;7.40;99.90
23495;DHT22;26107;50.832;2.950;2022-12-07T12:27:50;7.90;99.90
23495;DHT22;26107;50.832;2.950;2022-12-07T12:42:53;7.90;99.90
23495;DHT22;26107;50.832;2.950;2022-12-07T13:28:26;6.80;99.90
23495;DHT22;26107;50.832;2.950;2022-12-07T13:43:28;6.80;99.90
23495;DHT22;26107;50.832;2.950;2022-12-07T13:58:30;7.40;99.90
23495;DHT22;26107;50.832;2.950;2022-12-07T14:28:36;7.90;99.90
23495;DHT22;26107;50.832;2.950;2022-12-07T14:43:37;8.80;99.90
23495;DHT22;26107;50.832;2.950;2022-12-07T14:58:37;8.40;99.90
23495;DHT22;26107;50.832;2.950;2022-12-07T15:13:38;8.00;99.90
23495;DHT22;26107;50.832;2.950;2022-12-07T15:28:57;7.50;99.90
23495;DHT22;26107;50.832;2.950;2022-12-07T15:43:57;7.00;99.90
23495;DHT22;26107;50.832;2.950;2022-12-07T15:59:17;6.90;99.90
23495;DHT22;26107;50.832;2.950;2022-12-07T16:14:17;6.70;99.90
23495;DHT22;26107;50.832;2.950;2022-12-07T16:29:20;6.50;99.90
23495;DHT22;26107;50.832;2.950;2022-12-07T16:44:20;6.50;99.90
23495;DHT22;26107;50.832;2.950;2022-12-07T16:59:21;6.00;99.90
23495;DHT22;26107;50.832;2.950;2022-12-07T17:14:22;6.20;99.90
23495;DHT22;26107;50.832;2.950;2022-12-07T17:29:41;5.70;99.90
23495;DHT22;26107;50.832;2.950;2022-12-07T17:44:41;5.50;99.90
23495;DHT22;26107;50.832;2.950;2022-12-07T17:59:42;4.90;99.90
23495;DHT22;26107;50.832;2.950;2022-12-07T18:14:42;5.00;99.90
23495;DHT22;26107;50.832;2.950;2022-12-07T18:29:43;4.90;99.90
23495;DHT22;26107;50.832;2.950;2022-12-07T18:44:44;4.90;99.90
23495;DHT22;26107;50.832;2.950;2022-12-07T18:59:44;4.50;99.90
23495;DHT22;26107;50.832;2.950;2022-12-07T19:14:48;4.60;99.90
23495;DHT22;26107;50.832;2.950;2022-12-07T19:29:49;4.60;99.90
23495;DHT22;26107;50.832;2.950;2022-12-07T19:44:50;4.40;99.90
23495;DHT22;26107;50.832;2.950;2022-12-07T19:59:51;4.50;99.90
23495;DHT22;26107;50.832;2.950;2022-12-07T20:14:51;4.70;99.90
23495;DHT22;26107;50.832;2.950;2022-12-07T20:29:52;5.00;99.90
23495;DHT22;26107;50.832;2.950;2022-12-07T20:44:52;5.40;99.90
23495;DHT22;26107;50.832;2.950;2022-12-07T20:59:53;5.40;99.90
23495;DHT22;26107;50.832;2.950;2022-12-07T21:14:54;5.30;99.90
23495;DHT22;26107;50.832;2.950;2022-12-07T21:29:54;5.30;99.90
23495;DHT22;26107;50.832;2.950;2022-12-07T21:44:55;4.80;99.90
23495;DHT22;26107;50.832;2.950;2022-12-07T21:59:55;5.00;99.90
23495;DHT22;26107;50.832;2.950;2022-12-07T22:14:56;4.90;99.90
23495;DHT22;26107;50.832;2.950;2022-12-07T22:30:07;4.70;99.90
23495;DHT22;26107;50.832;2.950;2022-12-07T22:45:08;4.40;99.90
23495;DHT22;26107;50.832;2.950;2022-12-07T23:00:11;4.20;99.90
23495;DHT22;26107;50.832;2.950;2022-12-07T23:15:13;4.00;99.90
23495;DHT22;26107;50.832;2.950;2022-12-07T23:30:13;4.20;99.90
23495;DHT22;26107;50.832;2.950;2022-12-07T23:45:14;4.20;99.90
